createdAt,value
2018-12-21T00:00:22.065Z,4.65
2018-12-21T00:02:50.554Z,4.61
2018-12-21T00:05:19.389Z,4.64
2018-12-21T00:07:47.838Z,4.86
2018-12-21T00:10:16.478Z,4.64
2018-12-21T00:12:45.532Z,4.61
2018-12-21T00:15:14.086Z,4.59
2018-12-21T00:17:42.549Z,4.77
2018-12-21T00:20:11.217Z,4.72
2018-12-21T00:22:40.529Z,4.62
2018-12-21T00:25:09.054Z,4.67
2018-12-21T00:27:37.822Z,4.78
2018-12-21T00:30:09.061Z,4.74
2018-12-21T00:32:42.757Z,4.75
2018-12-21T00:35:16.533Z,4.76
2018-12-21T00:37:50.417Z,4.79
2018-12-21T00:40:24.011Z,4.59
2018-12-21T00:42:57.602Z,4.51
2018-12-21T00:45:31.247Z,4.34
2018-12-21T00:47:59.893Z,4.30
2018-12-21T00:50:29.594Z,4.23
2018-12-21T00:52:58.145Z,4.40
2018-12-21T00:55:26.619Z,4.35
2018-12-21T00:57:55.942Z,4.24
2018-12-21T01:00:26.666Z,4.20
2018-12-21T01:02:55.154Z,4.28
2018-12-21T01:05:23.598Z,4.25
2018-12-21T01:07:52.129Z,4.25
2018-12-21T01:10:20.618Z,4.08
2018-12-21T01:12:49.329Z,4.26
2018-12-21T01:15:18.323Z,4.19
2018-12-21T01:17:46.817Z,4.26
2018-12-21T01:20:15.482Z,4.27
2018-12-21T01:22:43.973Z,4.29
2018-12-21T01:25:12.445Z,4.32
2018-12-21T01:27:40.921Z,4.25
2018-12-21T01:30:09.782Z,4.25
2018-12-21T01:32:38.445Z,4.19
2018-12-21T01:35:07.237Z,4.31
2018-12-21T01:37:35.729Z,4.26
2018-12-21T01:40:04.469Z,4.12
2018-12-21T01:42:32.953Z,4.20
2018-12-21T01:45:01.454Z,4.23
2018-12-21T01:47:29.946Z,4.20
2018-12-21T01:49:58.414Z,4.20
2018-12-21T01:52:26.894Z,4.05
2018-12-21T01:54:55.488Z,4.17
2018-12-21T01:57:24.105Z,4.08
2018-12-21T01:59:52.583Z,4.21
2018-12-21T02:02:21.078Z,4.04
2018-12-21T02:04:49.545Z,4.06
2018-12-21T02:07:18.836Z,4.10
2018-12-21T02:09:47.294Z,4.05
2018-12-21T02:12:15.786Z,4.11
2018-12-21T02:14:44.310Z,4.18
2018-12-21T02:17:12.774Z,4.08
2018-12-21T02:19:41.210Z,3.96
2018-12-21T02:22:09.922Z,4.14
2018-12-21T02:24:38.492Z,4.15
2018-12-21T02:27:07.086Z,4.13
2018-12-21T02:29:35.540Z,4.23
2018-12-21T02:32:04.157Z,4.18
2018-12-21T02:34:32.653Z,4.42
2018-12-21T02:37:01.151Z,4.30
2018-12-21T02:39:29.683Z,4.31
2018-12-21T02:41:58.194Z,4.35
2018-12-21T02:44:26.769Z,4.23
2018-12-21T02:46:55.627Z,4.37
2018-12-21T02:49:24.229Z,4.36
2018-12-21T02:51:52.729Z,4.33
2018-12-21T02:54:21.211Z,4.51
2018-12-21T02:56:49.695Z,4.50
2018-12-21T02:59:18.233Z,4.48
2018-12-21T03:01:46.708Z,4.50
2018-12-21T03:04:15.493Z,4.45
2018-12-21T03:06:44.068Z,4.45
2018-12-21T03:09:12.680Z,4.51
2018-12-21T03:11:47.777Z,4.55
2018-12-21T03:14:16.225Z,4.48
2018-12-21T03:16:44.787Z,4.47
2018-12-21T03:19:13.538Z,4.50
2018-12-21T03:21:42.013Z,4.56
2018-12-21T03:24:10.654Z,4.57
2018-12-21T03:26:39.235Z,4.54
2018-12-21T03:29:07.717Z,4.57
2018-12-21T03:31:36.311Z,4.63
2018-12-21T03:34:04.930Z,4.66
2018-12-21T03:36:33.419Z,4.65
2018-12-21T03:39:04.048Z,4.67
2018-12-21T03:41:32.770Z,4.65
2018-12-21T03:44:01.565Z,4.60
2018-12-21T03:46:30.053Z,4.65
2018-12-21T03:48:58.584Z,4.82
2018-12-21T03:51:27.065Z,4.64
2018-12-21T03:53:55.562Z,4.63
2018-12-21T03:56:24.150Z,4.61
2018-12-21T03:58:52.641Z,4.67
2018-12-21T04:01:21.286Z,4.86
2018-12-21T04:03:49.816Z,4.70
2018-12-21T04:06:18.309Z,4.84
2018-12-21T04:08:47.417Z,4.74
2018-12-21T04:11:15.920Z,4.77
2018-12-21T04:13:44.363Z,4.83
2018-12-21T04:16:12.869Z,4.80
2018-12-21T04:18:41.315Z,4.84
2018-12-21T04:21:10.087Z,4.90
2018-12-21T04:23:38.604Z,4.91
2018-12-21T04:26:07.162Z,4.94
2018-12-21T04:28:35.603Z,4.88
2018-12-21T04:31:04.178Z,4.91
2018-12-21T04:33:32.656Z,4.82
2018-12-21T04:36:01.152Z,4.83
2018-12-21T04:38:29.779Z,4.77
2018-12-21T04:40:58.251Z,4.98
2018-12-21T04:43:26.798Z,4.87
2018-12-21T04:45:55.313Z,4.80
2018-12-21T04:48:23.893Z,4.94
2018-12-21T04:50:52.471Z,4.87
2018-12-21T04:53:21.082Z,4.95
2018-12-21T04:55:49.774Z,4.90
2018-12-21T04:58:18.859Z,4.88
2018-12-21T05:00:47.367Z,4.88
2018-12-21T05:03:16.024Z,4.94
2018-12-21T05:05:44.533Z,4.85
2018-12-21T05:08:13.224Z,4.96
2018-12-21T05:10:41.678Z,4.82
2018-12-21T05:13:10.208Z,4.92
2018-12-21T05:15:38.774Z,4.86
2018-12-21T05:18:07.240Z,4.87
2018-12-21T05:20:35.726Z,4.92
2018-12-21T05:23:04.195Z,4.81
2018-12-21T05:25:32.681Z,4.97
2018-12-21T05:28:01.132Z,4.96
2018-12-21T05:30:29.702Z,5.09
2018-12-21T05:32:58.878Z,5.06
2018-12-21T05:35:27.620Z,5.08
2018-12-21T05:37:56.415Z,5.04
2018-12-21T05:40:25.002Z,5.00
2018-12-21T05:42:53.637Z,5.06
2018-12-21T05:45:22.344Z,5.10
2018-12-21T05:47:53.574Z,5.08
2018-12-21T05:50:23.300Z,5.00
2018-12-21T05:52:52.017Z,5.08
2018-12-21T05:55:22.437Z,5.12
2018-12-21T05:57:51.013Z,4.97
2018-12-21T06:00:22.402Z,4.99
2018-12-21T06:02:51.709Z,5.06
2018-12-21T06:05:22.036Z,4.99
2018-12-21T06:07:52.599Z,4.93
2018-12-21T06:10:21.187Z,4.87
2018-12-21T06:12:49.726Z,5.01
2018-12-21T06:15:18.213Z,4.97
2018-12-21T06:17:46.663Z,4.93
2018-12-21T06:20:15.195Z,4.93
2018-12-21T06:22:43.761Z,4.95
2018-12-21T06:25:12.610Z,5.05
2018-12-21T06:27:41.167Z,5.03
2018-12-21T06:30:09.679Z,5.08
2018-12-21T06:32:40.028Z,5.02
2018-12-21T06:35:08.735Z,5.08
2018-12-21T06:37:37.350Z,5.03
2018-12-21T06:40:06.835Z,5.16
2018-12-21T06:42:35.961Z,5.25
2018-12-21T06:45:05.802Z,5.20
2018-12-21T06:47:34.858Z,5.30
2018-12-21T06:50:03.500Z,5.40
2018-12-21T06:52:32.025Z,5.23
2018-12-21T06:55:00.522Z,5.38
2018-12-21T06:57:29.029Z,5.36
2018-12-21T06:59:57.635Z,5.33
2018-12-21T07:02:26.194Z,5.33
2018-12-21T07:04:55.446Z,5.70
2018-12-21T07:07:25.478Z,5.60
2018-12-21T07:09:53.990Z,5.58
2018-12-21T07:12:22.550Z,5.54
2018-12-21T07:14:51.214Z,5.42
2018-12-21T07:17:19.710Z,5.49
2018-12-21T07:19:48.296Z,5.42
2018-12-21T07:22:16.838Z,5.50
2018-12-21T07:24:45.406Z,5.41
2018-12-21T07:27:14.159Z,5.36
2018-12-21T07:29:42.679Z,5.39
2018-12-21T07:32:11.291Z,5.37
2018-12-21T07:34:39.762Z,5.37
2018-12-21T07:37:08.249Z,5.49
2018-12-21T07:39:36.734Z,5.59
2018-12-21T07:42:05.258Z,5.64
2018-12-21T07:44:33.907Z,5.62
2018-12-21T07:47:02.512Z,5.50
2018-12-21T07:49:31.035Z,5.58
2018-12-21T07:51:59.618Z,5.66
2018-12-21T07:54:29.346Z,5.59
2018-12-21T07:56:57.910Z,5.70
2018-12-21T07:59:26.521Z,5.81
2018-12-21T08:01:55.561Z,5.76
2018-12-21T08:04:24.133Z,5.73
2018-12-21T08:06:52.614Z,5.88
2018-12-21T08:09:21.076Z,5.84
2018-12-21T08:11:49.638Z,5.75
2018-12-21T08:14:18.997Z,5.78
2018-12-21T08:16:47.475Z,5.83
2018-12-21T08:19:17.233Z,5.73
2018-12-21T08:21:45.738Z,5.77
2018-12-21T08:24:14.650Z,5.77
2018-12-21T08:26:43.133Z,5.80
2018-12-21T08:29:11.720Z,5.87
2018-12-21T08:31:40.891Z,5.82
2018-12-21T08:34:10.401Z,5.80
2018-12-21T08:36:39.422Z,5.83
2018-12-21T08:39:08.267Z,5.94
2018-12-21T08:41:36.793Z,5.96
2018-12-21T08:44:05.319Z,5.88
2018-12-21T08:46:34.675Z,5.85
2018-12-21T08:49:03.219Z,5.75
2018-12-21T08:51:31.774Z,5.67
2018-12-21T08:54:00.294Z,5.56
2018-12-21T08:56:29.490Z,5.53
2018-12-21T08:58:58.550Z,5.51
2018-12-21T09:01:27.048Z,5.54
2018-12-21T09:03:55.637Z,5.49
2018-12-21T09:06:24.086Z,5.38
2018-12-21T09:08:53.061Z,5.51
2018-12-21T09:11:21.598Z,5.45
2018-12-21T09:13:50.097Z,5.41
2018-12-21T09:16:18.555Z,5.42
2018-12-21T09:18:47.506Z,5.50
2018-12-21T09:21:15.965Z,5.56
2018-12-21T09:23:44.423Z,5.51
2018-12-21T09:26:12.882Z,5.53
2018-12-21T09:28:42.067Z,5.58
2018-12-21T09:31:10.658Z,5.58
2018-12-21T09:33:39.129Z,5.77
2018-12-21T09:36:07.715Z,5.78
2018-12-21T09:38:36.322Z,5.84
2018-12-21T09:41:04.906Z,5.89
2018-12-21T09:43:33.478Z,6.13
2018-12-21T09:46:02.278Z,6.01
2018-12-21T09:48:30.749Z,6.05
2018-12-21T09:50:59.200Z,6.11
2018-12-21T09:53:27.686Z,6.06
2018-12-21T09:55:56.167Z,6.12
2018-12-21T09:58:24.770Z,6.10
2018-12-21T10:00:53.330Z,6.25
2018-12-21T10:03:21.997Z,6.14
2018-12-21T10:05:50.535Z,6.21
2018-12-21T10:08:19.782Z,6.09
2018-12-21T10:10:50.515Z,6.08
2018-12-21T10:13:18.771Z,6.15
2018-12-21T10:15:47.220Z,6.13
2018-12-21T10:18:15.783Z,6.13
2018-12-21T10:20:45.215Z,6.21
2018-12-21T10:23:13.756Z,6.07
2018-12-21T10:25:42.237Z,6.18
2018-12-21T10:28:11.377Z,6.25
2018-12-21T10:30:39.826Z,6.14
2018-12-21T10:33:08.460Z,6.08
2018-12-21T10:35:36.931Z,6.12
2018-12-21T10:38:05.772Z,5.95
2018-12-21T10:40:34.325Z,6.05
2018-12-21T10:43:02.881Z,5.99
2018-12-21T10:45:31.466Z,5.81
2018-12-21T10:48:00.165Z,6.01
2018-12-21T10:50:28.856Z,6.01
2018-12-21T10:52:57.361Z,5.94
2018-12-21T10:55:25.927Z,5.98
2018-12-21T10:57:54.482Z,6.04
2018-12-21T11:00:23.797Z,6.04
2018-12-21T11:02:52.269Z,6.06
2018-12-21T11:05:20.718Z,6.05
2018-12-21T11:07:49.218Z,6.15
2018-12-21T11:10:17.665Z,6.11
2018-12-21T11:12:46.254Z,6.16
2018-12-21T11:15:14.834Z,6.16
2018-12-21T11:17:44.149Z,6.07
2018-12-21T11:20:12.913Z,6.09
2018-12-21T11:22:42.062Z,6.22
2018-12-21T11:25:12.677Z,6.09
2018-12-21T11:27:41.171Z,6.05
2018-12-21T11:30:09.863Z,5.96
2018-12-21T11:32:38.355Z,6.10
2018-12-21T11:35:07.019Z,6.09
2018-12-21T11:37:36.220Z,6.08
2018-12-21T11:40:05.378Z,6.06
2018-12-21T11:42:33.937Z,6.33
2018-12-21T11:45:02.465Z,6.28
2018-12-21T11:47:30.997Z,6.25
2018-12-21T11:49:59.482Z,6.27
2018-12-21T11:52:27.981Z,6.23
2018-12-21T11:54:56.449Z,6.41
2018-12-21T11:57:25.158Z,6.37
2018-12-21T11:59:53.702Z,6.34
2018-12-21T12:02:22.191Z,6.50
2018-12-21T12:04:50.694Z,6.52
2018-12-21T12:07:19.172Z,6.50
2018-12-21T12:09:47.699Z,6.60
2018-12-21T12:12:16.276Z,6.59
2018-12-21T12:14:44.731Z,6.59
2018-12-21T12:17:13.240Z,6.56
2018-12-21T12:19:41.685Z,6.71
2018-12-21T12:22:10.167Z,6.62
2018-12-21T12:24:38.641Z,6.71
2018-12-21T12:27:07.191Z,6.77
2018-12-21T12:29:35.661Z,6.64
2018-12-21T12:32:04.287Z,6.71
2018-12-21T12:34:32.748Z,6.76
2018-12-21T12:37:01.207Z,6.67
2018-12-21T12:39:29.975Z,6.80
2018-12-21T12:41:58.438Z,6.84
2018-12-21T12:44:26.920Z,6.78
2018-12-21T12:46:55.929Z,6.75
2018-12-21T12:49:24.504Z,6.79
2018-12-21T12:51:53.078Z,6.77
2018-12-21T12:54:21.743Z,6.79
2018-12-21T12:56:50.349Z,6.75
2018-12-21T12:59:19.070Z,6.84
2018-12-21T13:01:47.854Z,6.86
2018-12-21T13:04:17.035Z,6.78
2018-12-21T13:06:45.676Z,6.85
2018-12-21T13:09:14.138Z,6.84
2018-12-21T13:11:42.604Z,6.85
2018-12-21T13:14:11.178Z,6.91
2018-12-21T13:16:39.654Z,7.07
2018-12-21T13:19:08.103Z,7.02
2018-12-21T13:21:36.898Z,6.95
2018-12-21T13:24:05.338Z,6.93
2018-12-21T13:26:33.847Z,7.04
2018-12-21T13:29:03.450Z,7.16
2018-12-21T13:31:32.110Z,7.06
2018-12-21T13:34:00.942Z,7.14
2018-12-21T13:36:29.531Z,7.14
2018-12-21T13:38:58.085Z,7.21
2018-12-21T13:41:27.090Z,7.16
2018-12-21T13:43:55.545Z,7.13
2018-12-21T13:46:24.070Z,7.21
2018-12-21T13:48:52.545Z,7.23
2018-12-21T13:51:21.730Z,7.24
2018-12-21T13:53:50.516Z,7.23
2018-12-21T13:56:19.566Z,7.21
2018-12-21T13:58:48.850Z,7.29
2018-12-21T14:01:17.338Z,7.29
2018-12-21T14:03:45.929Z,7.28
2018-12-21T14:06:14.859Z,7.31
2018-12-21T14:08:43.344Z,7.26
2018-12-21T14:11:11.877Z,7.29
2018-12-21T14:13:40.358Z,7.31
2018-12-21T14:16:08.890Z,7.31
2018-12-21T14:18:37.943Z,7.40
2018-12-21T14:21:06.467Z,7.25
2018-12-21T14:23:34.926Z,7.33
2018-12-21T14:26:03.426Z,7.29
2018-12-21T14:28:32.033Z,7.25
2018-12-21T14:31:00.611Z,7.28
2018-12-21T14:33:29.066Z,7.35
2018-12-21T14:35:58.126Z,7.30
2018-12-21T14:38:26.763Z,7.40
2018-12-21T14:40:55.270Z,7.47
2018-12-21T14:43:24.074Z,7.59
2018-12-21T14:45:53.142Z,7.60
2018-12-21T14:48:21.600Z,7.71
2018-12-21T14:50:50.166Z,7.78
2018-12-21T14:53:18.626Z,7.76
2018-12-21T14:55:47.113Z,7.85
2018-12-21T14:58:15.589Z,7.82
2018-12-21T15:00:44.082Z,7.90
2018-12-21T15:03:12.632Z,8.02
2018-12-21T15:05:41.166Z,7.95
2018-12-21T15:08:09.730Z,8.05
2018-12-21T15:10:38.266Z,8.14
2018-12-21T15:13:06.711Z,8.06
2018-12-21T15:15:35.422Z,8.07
2018-12-21T15:18:03.999Z,8.20
2018-12-21T15:20:33.346Z,8.24
2018-12-21T15:23:02.008Z,8.17
2018-12-21T15:25:30.521Z,8.33
2018-12-21T15:27:58.979Z,8.51
2018-12-21T15:30:27.850Z,8.45
2018-12-21T15:32:56.435Z,8.45
2018-12-21T15:35:25.699Z,8.60
2018-12-21T15:37:54.792Z,8.63
2018-12-21T15:40:23.422Z,8.58
2018-12-21T15:42:52.224Z,8.77
2018-12-21T15:45:21.080Z,8.75
2018-12-21T15:47:49.558Z,8.72
2018-12-21T15:50:18.822Z,8.86
2018-12-21T15:52:47.327Z,8.82
2018-12-21T15:55:15.856Z,8.93
2018-12-21T15:57:45.136Z,8.87
2018-12-21T16:00:16.770Z,8.95
2018-12-21T16:02:48.644Z,9.00
2018-12-21T16:05:17.232Z,8.99
2018-12-21T16:07:45.794Z,8.94
2018-12-21T16:10:14.458Z,8.98
2018-12-21T16:12:42.958Z,8.97
2018-12-21T16:15:11.541Z,9.00
2018-12-21T16:17:40.333Z,8.96
2018-12-21T16:20:13.145Z,9.04
2018-12-21T16:22:42.590Z,9.11
2018-12-21T16:25:11.551Z,9.03
2018-12-21T16:27:40.113Z,9.01
2018-12-21T16:30:11.541Z,9.05
2018-12-21T16:32:40.094Z,9.03
2018-12-21T16:35:09.026Z,9.11
2018-12-21T16:37:37.616Z,9.07
2018-12-21T16:40:10.187Z,9.16
2018-12-21T16:42:39.671Z,9.12
2018-12-21T16:45:11.095Z,9.14
2018-12-21T16:47:40.452Z,9.19
2018-12-21T16:50:14.136Z,9.23
2018-12-21T16:52:43.059Z,9.29
2018-12-21T16:55:14.268Z,9.31
2018-12-21T16:57:45.120Z,9.22
2018-12-21T17:00:14.635Z,9.25
2018-12-21T17:02:43.154Z,9.33
2018-12-21T17:05:12.629Z,9.37
2018-12-21T17:07:42.293Z,9.35
2018-12-21T17:10:18.780Z,9.41
2018-12-21T17:12:47.615Z,9.44
2018-12-21T17:15:17.166Z,9.41
2018-12-21T17:17:45.643Z,9.41
2018-12-21T17:20:14.171Z,9.45
2018-12-21T17:22:42.715Z,9.43
2018-12-21T17:25:13.830Z,9.44
2018-12-21T17:27:42.429Z,9.45
2018-12-21T17:30:12.505Z,9.34
2018-12-21T17:32:40.964Z,9.41
2018-12-21T17:35:10.490Z,9.33
2018-12-21T17:37:40.912Z,9.48
2018-12-21T17:40:11.432Z,9.50
2018-12-21T17:42:39.930Z,9.53
2018-12-21T17:45:11.095Z,9.59
2018-12-21T17:47:39.669Z,9.58
2018-12-21T17:50:10.038Z,9.70
2018-12-21T17:52:39.074Z,9.67
2018-12-21T17:55:09.141Z,9.75
2018-12-21T17:57:37.657Z,9.83
2018-12-21T18:00:14.869Z,9.92
2018-12-21T18:02:44.567Z,9.86
2018-12-21T18:05:13.148Z,9.99
2018-12-21T18:07:41.732Z,9.92
2018-12-21T18:10:11.350Z,10.02
2018-12-21T18:12:40.322Z,10.00
2018-12-21T18:15:10.085Z,9.91
2018-12-21T18:17:38.618Z,10.06
2018-12-21T18:20:10.738Z,10.07
2018-12-21T18:22:39.398Z,9.97
2018-12-21T18:25:14.318Z,10.06
2018-12-21T18:27:44.209Z,10.16
2018-12-21T18:30:17.784Z,10.10
2018-12-21T18:32:46.568Z,10.17
2018-12-21T18:35:19.530Z,10.06
2018-12-21T18:37:58.915Z,10.12
2018-12-21T18:40:28.391Z,10.04
2018-12-21T18:42:57.498Z,10.03
2018-12-21T18:45:26.043Z,10.19
2018-12-21T18:47:54.562Z,10.12
2018-12-21T18:50:24.083Z,10.08
2018-12-21T18:52:52.606Z,10.00
2018-12-21T18:55:21.609Z,10.03
2018-12-21T18:57:50.112Z,10.24
2018-12-21T19:00:19.589Z,10.34
2018-12-21T19:02:48.162Z,10.35
2018-12-21T19:05:16.723Z,10.36
2018-12-21T19:07:45.389Z,10.21
2018-12-21T19:10:14.108Z,10.37
2018-12-21T19:12:42.687Z,10.36
2018-12-21T19:15:12.104Z,10.38
2018-12-21T19:17:41.470Z,10.35
2018-12-21T19:20:11.761Z,10.41
2018-12-21T19:22:40.685Z,10.44
2018-12-21T19:25:10.986Z,10.40
2018-12-21T19:27:39.548Z,10.42
2018-12-21T19:30:10.890Z,10.43
2018-12-21T19:32:40.911Z,10.42
2018-12-21T19:35:10.522Z,10.51
2018-12-21T19:37:38.985Z,10.53
2018-12-21T19:40:09.384Z,10.54
2018-12-21T19:42:38.633Z,10.54
2018-12-21T19:45:09.449Z,10.56
2018-12-21T19:47:39.127Z,10.56
2018-12-21T19:50:09.770Z,10.52
2018-12-21T19:52:38.401Z,10.63
2018-12-21T19:55:18.874Z,10.57
2018-12-21T19:57:47.562Z,10.57
2018-12-21T20:00:16.550Z,10.59
2018-12-21T20:02:45.342Z,10.59
2018-12-21T20:05:13.948Z,10.60
2018-12-21T20:07:42.701Z,10.57
2018-12-21T20:10:13.477Z,10.59
2018-12-21T20:12:42.726Z,10.61
2018-12-21T20:15:12.139Z,10.61
2018-12-21T20:17:41.004Z,10.63
2018-12-21T20:20:10.830Z,10.55
2018-12-21T20:22:39.394Z,10.61
2018-12-21T20:25:09.637Z,10.63
2018-12-21T20:27:38.870Z,10.65
2018-12-21T20:30:10.035Z,10.60
2018-12-21T20:32:39.269Z,10.64
2018-12-21T20:35:08.696Z,10.62
2018-12-21T20:37:39.435Z,10.61
2018-12-21T20:40:10.505Z,10.60
2018-12-21T20:42:39.849Z,10.61
2018-12-21T20:45:09.974Z,10.59
2018-12-21T20:47:38.669Z,10.61
2018-12-21T20:50:10.843Z,10.65
2018-12-21T20:52:39.444Z,10.62
2018-12-21T20:55:09.035Z,10.62
2018-12-21T20:57:38.157Z,10.65
2018-12-21T21:00:10.814Z,10.69
2018-12-21T21:02:39.358Z,10.68
2018-12-21T21:05:08.824Z,10.72
2018-12-21T21:07:37.717Z,10.58
2018-12-21T21:10:10.398Z,10.64
2018-12-21T21:12:49.365Z,10.68
2018-12-21T21:15:18.562Z,10.68
2018-12-21T21:17:47.885Z,10.69
2018-12-21T21:20:16.759Z,10.55
2018-12-21T21:22:47.082Z,10.64
2018-12-21T21:25:16.755Z,10.55
2018-12-21T21:27:45.833Z,10.76
2018-12-21T21:30:17.295Z,10.68
2018-12-21T21:32:45.867Z,10.57
2018-12-21T21:35:14.412Z,10.57
2018-12-21T21:37:43.420Z,10.62
2018-12-21T21:40:15.441Z,10.62
2018-12-21T21:42:44.068Z,10.41
2018-12-21T21:45:12.713Z,10.66
2018-12-21T21:47:41.466Z,10.70
2018-12-21T21:50:10.884Z,10.45
2018-12-21T21:52:39.716Z,10.44
2018-12-21T21:55:08.264Z,10.60
2018-12-21T21:57:39.547Z,10.62
2018-12-21T22:00:11.406Z,10.40
2018-12-21T22:02:40.044Z,10.45
2018-12-21T22:05:08.970Z,10.48
2018-12-21T22:07:37.498Z,10.50
2018-12-21T22:10:08.592Z,10.40
2018-12-21T22:12:37.127Z,10.30
2018-12-21T22:15:06.267Z,10.61
2018-12-21T22:17:34.746Z,10.62
2018-12-21T22:20:03.401Z,10.59
2018-12-21T22:22:32.334Z,10.45
2018-12-21T22:25:00.819Z,10.53
2018-12-21T22:27:29.394Z,10.57
2018-12-21T22:29:57.899Z,10.57
2018-12-21T22:32:26.511Z,10.61
2018-12-21T22:34:55.408Z,10.39
2018-12-21T22:37:24.242Z,10.46
2018-12-21T22:39:52.710Z,10.51
2018-12-21T22:42:21.337Z,10.57
2018-12-21T22:44:49.923Z,10.54
2018-12-21T22:47:18.433Z,10.44
2018-12-21T22:49:46.935Z,10.26
2018-12-21T22:52:15.525Z,10.36
2018-12-21T22:54:44.488Z,10.44
2018-12-21T22:57:13.003Z,10.16
2018-12-21T22:59:41.549Z,10.33
2018-12-21T23:02:10.022Z,10.41
2018-12-21T23:04:39.586Z,10.13
2018-12-21T23:07:08.534Z,10.25
2018-12-21T23:09:37.041Z,10.23
2018-12-21T23:12:05.526Z,10.31
2018-12-21T23:14:33.990Z,10.57
2018-12-21T23:17:02.647Z,10.63
2018-12-21T23:19:31.171Z,10.54
2018-12-21T23:21:59.824Z,10.61
2018-12-21T23:24:28.288Z,10.61
2018-12-21T23:26:56.878Z,10.65
2018-12-21T23:29:25.588Z,10.63
2018-12-21T23:31:54.085Z,10.62
2018-12-21T23:34:22.545Z,10.53
2018-12-21T23:36:51.183Z,10.59
2018-12-21T23:39:19.631Z,10.58
2018-12-21T23:41:48.229Z,10.59
2018-12-21T23:44:16.861Z,10.57
2018-12-21T23:46:45.986Z,10.55
2018-12-21T23:49:14.525Z,10.49
2018-12-21T23:51:43.184Z,10.40
2018-12-21T23:54:11.767Z,10.49
2018-12-21T23:56:40.714Z,10.41
2018-12-21T23:59:09.934Z,10.44
